createdAt,value
2022-12-01T00:01:27.003Z,84.45
2022-12-01T00:03:54.695Z,91.32
2022-12-01T00:06:22.264Z,95.38
2022-12-01T00:09:17.968Z,88.20
2022-12-01T00:11:48.736Z,90.85
2022-12-01T00:14:16.373Z,95.38
2022-12-01T00:16:44.580Z,86.03
2022-12-01T00:19:11.924Z,87.13
2022-12-01T00:21:39.183Z,75.38
2022-12-01T00:24:09.890Z,84.78
2022-12-01T00:26:38.763Z,81.07
2022-12-01T00:29:05.977Z,77.72
2022-12-01T00:31:34.046Z,84.30
2022-12-01T00:34:03.796Z,82.35
2022-12-01T00:36:34.089Z,82.43
2022-12-01T00:39:01.362Z,82.00
2022-12-01T00:41:28.484Z,86.22
2022-12-01T00:43:55.739Z,82.80
2022-12-01T00:46:22.989Z,82.68
2022-12-01T00:48:50.276Z,87.43
2022-12-01T00:51:17.746Z,82.45
2022-12-01T00:53:45.924Z,90.47
2022-12-01T00:56:13.294Z,87.47
2022-12-01T00:58:40.587Z,85.15
2022-12-01T01:01:08.141Z,82.93
2022-12-01T01:03:35.533Z,74.70
2022-12-01T01:06:09.795Z,83.07
2022-12-01T01:08:37.980Z,85.57
2022-12-01T01:11:08.714Z,79.47
2022-12-01T01:13:37.071Z,73.32
2022-12-01T01:16:14.192Z,78.60
2022-12-01T01:18:41.484Z,74.18
2022-12-01T01:21:15.474Z,84.05
2022-12-01T01:23:43.266Z,74.68
2022-12-01T01:26:22.703Z,77.60
2022-12-01T01:28:50.974Z,69.32
2022-12-01T01:31:22.708Z,75.75
2022-12-01T01:33:50.625Z,72.57
2022-12-01T01:36:18.999Z,81.88
2022-12-01T01:38:47.632Z,74.80
2022-12-01T01:41:15.026Z,74.63
2022-12-01T01:43:49.526Z,75.07
2022-12-01T01:46:37.803Z,79.30
2022-12-01T01:49:11.647Z,77.30
2022-12-01T01:51:49.474Z,83.28
2022-12-01T01:54:31.494Z,74.82
2022-12-01T01:57:01.677Z,74.65
2022-12-01T01:59:37.800Z,85.65
2022-12-01T02:02:11.929Z,82.65
2022-12-01T02:04:46.123Z,81.10
2022-12-01T02:07:19.102Z,84.72
2022-12-01T02:09:46.876Z,83.88
2022-12-01T02:12:39.758Z,81.13
2022-12-01T02:15:35.441Z,67.15
2022-12-01T02:18:26.547Z,72.47
2022-12-01T02:21:36.915Z,75.40
2022-12-01T02:24:40.955Z,93.93
2022-12-01T02:27:55.115Z,83.43
2022-12-01T02:30:50.980Z,147.77
2022-12-01T02:33:47.081Z,78.57
2022-12-01T02:36:45.491Z,102.60
2022-12-01T02:39:35.713Z,93.00
2022-12-01T02:42:59.946Z,99.47
2022-12-01T02:45:46.172Z,86.55
2022-12-01T02:48:33.811Z,100.05
2022-12-01T02:51:29.059Z,83.28
2022-12-01T02:54:00.137Z,129.68
2022-12-01T02:56:27.849Z,93.65
2022-12-01T02:58:55.543Z,88.82
2022-12-01T03:02:01.312Z,94.25
2022-12-01T03:05:07.401Z,94.10
2022-12-01T03:08:02.136Z,91.15
2022-12-01T03:10:42.492Z,88.63
2022-12-01T03:14:02.914Z,87.32
2022-12-01T03:16:48.150Z,93.85
2022-12-01T03:19:53.694Z,86.00
2022-12-01T03:22:32.049Z,81.15
2022-12-01T03:25:03.675Z,80.30
2022-12-01T03:27:39.100Z,84.22
2022-12-01T03:30:10.914Z,83.40
2022-12-01T03:32:50.121Z,85.05
2022-12-01T03:35:41.862Z,79.00
2022-12-01T03:38:16.492Z,128.48
2022-12-01T03:40:49.820Z,96.30
2022-12-01T03:43:26.577Z,136.57
2022-12-01T03:46:31.700Z,129.45
2022-12-01T03:48:59.103Z,101.70
2022-12-01T03:52:04.563Z,139.80
2022-12-01T03:55:06.731Z,166.15
2022-12-01T03:57:56.947Z,115.07
2022-12-01T04:00:25.162Z,118.07
2022-12-01T04:03:03.244Z,170.10
2022-12-01T04:05:33.438Z,169.10
2022-12-01T04:08:01.745Z,184.90
2022-12-01T04:10:29.150Z,149.73
2022-12-01T04:12:59.545Z,133.05
2022-12-01T04:15:28.148Z,155.23
2022-12-01T04:17:55.457Z,162.32
2022-12-01T04:20:23.396Z,154.93
2022-12-01T04:22:50.543Z,136.73
2022-12-01T04:25:17.790Z,100.15
2022-12-01T04:27:44.972Z,102.80
2022-12-01T04:30:13.137Z,95.68
2022-12-01T04:32:43.632Z,94.90
2022-12-01T04:35:12.956Z,95.65
2022-12-01T04:37:41.027Z,96.70
2022-12-01T04:40:09.523Z,174.45
2022-12-01T04:42:36.690Z,91.25
2022-12-01T04:45:04.446Z,119.18
2022-12-01T04:47:31.663Z,108.30
2022-12-01T04:49:58.889Z,83.45
2022-12-01T04:52:27.498Z,92.93
2022-12-01T04:54:57.881Z,84.68
2022-12-01T04:57:25.160Z,79.53
2022-12-01T04:59:52.552Z,82.97
2022-12-01T05:02:19.902Z,80.50
2022-12-01T05:04:48.195Z,78.93
2022-12-01T05:07:15.437Z,74.43
2022-12-01T05:09:42.830Z,85.20
2022-12-01T05:12:10.286Z,78.75
2022-12-01T05:14:37.448Z,87.82
2022-12-01T05:17:04.691Z,80.40
2022-12-01T05:19:51.118Z,75.30
2022-12-01T05:22:31.500Z,76.35
2022-12-01T05:25:06.131Z,76.75
2022-12-01T05:27:33.315Z,78.90
2022-12-01T05:30:00.468Z,83.90
2022-12-01T05:32:27.630Z,83.15
2022-12-01T05:34:54.879Z,77.68
2022-12-01T05:37:22.021Z,75.80
2022-12-01T05:39:49.410Z,72.88
2022-12-01T05:42:16.748Z,77.82
2022-12-01T05:44:43.997Z,68.83
2022-12-01T05:47:11.248Z,78.28
2022-12-01T05:49:38.387Z,73.85
2022-12-01T05:52:05.569Z,69.88
2022-12-01T05:54:32.829Z,72.22
2022-12-01T05:57:00.110Z,73.45
2022-12-01T05:59:27.632Z,70.43
2022-12-01T06:01:55.001Z,70.82
2022-12-01T06:04:22.371Z,72.63
2022-12-01T06:06:49.856Z,74.28
2022-12-01T06:09:17.030Z,71.13
2022-12-01T06:11:44.214Z,70.38
2022-12-01T06:14:11.494Z,75.32
2022-12-01T06:16:38.889Z,73.10
2022-12-01T06:19:06.192Z,74.40
2022-12-01T06:21:33.483Z,76.45
2022-12-01T06:24:00.652Z,73.25
2022-12-01T06:26:30.905Z,69.18
2022-12-01T06:28:58.467Z,67.82
2022-12-01T06:31:25.738Z,73.05
2022-12-01T06:33:52.949Z,69.97
2022-12-01T06:36:20.173Z,71.30
2022-12-01T06:38:47.347Z,73.93
2022-12-01T06:41:14.483Z,68.43
2022-12-01T06:43:41.648Z,67.80
2022-12-01T06:46:08.978Z,65.43
2022-12-01T06:48:36.396Z,56.35
2022-12-01T06:51:03.893Z,56.90
2022-12-01T06:53:31.200Z,66.00
2022-12-01T06:56:05.911Z,69.25
2022-12-01T06:58:34.554Z,69.40
2022-12-01T07:01:12.379Z,68.90
2022-12-01T07:03:40.297Z,66.63
2022-12-01T07:06:07.617Z,69.18
2022-12-01T07:08:35.200Z,77.57
2022-12-01T07:11:12.502Z,87.63
2022-12-01T07:13:41.585Z,81.40
2022-12-01T07:16:09.622Z,82.90
2022-12-01T07:18:37.301Z,100.65
2022-12-01T07:21:12.772Z,84.10
2022-12-01T07:23:40.195Z,94.45
2022-12-01T07:26:15.548Z,99.35
2022-12-01T07:28:44.616Z,96.93
2022-12-01T07:31:18.926Z,161.55
2022-12-01T07:33:47.200Z,101.40
2022-12-01T07:36:15.672Z,101.90
2022-12-01T07:38:42.912Z,93.25
2022-12-01T07:41:14.335Z,90.13
2022-12-01T07:43:42.591Z,93.00
2022-12-01T07:46:22.649Z,93.88
2022-12-01T07:48:51.492Z,89.28
2022-12-01T07:51:19.895Z,94.38
2022-12-01T07:53:49.420Z,89.40
2022-12-01T07:56:19.141Z,85.57
2022-12-01T07:58:46.832Z,99.18
2022-12-01T08:01:24.844Z,94.20
2022-12-01T08:03:56.507Z,87.28
2022-12-01T08:06:25.497Z,74.72
2022-12-01T08:08:53.311Z,81.75
2022-12-01T08:11:29.275Z,73.95
2022-12-01T08:13:57.092Z,73.60
2022-12-01T08:16:25.950Z,76.20
2022-12-01T08:18:54.162Z,71.70
2022-12-01T08:21:24.100Z,59.80
2022-12-01T08:23:57.577Z,60.00
2022-12-01T08:26:26.382Z,64.15
2022-12-01T08:28:53.895Z,59.05
2022-12-01T08:31:30.350Z,63.08
2022-12-01T08:33:58.363Z,55.72
2022-12-01T08:36:26.330Z,62.90
2022-12-01T08:38:56.014Z,52.70
2022-12-01T08:41:24.733Z,56.55
2022-12-01T08:44:01.118Z,52.85
2022-12-01T08:46:33.867Z,53.92
2022-12-01T08:49:03.983Z,60.63
2022-12-01T08:51:31.764Z,66.75
2022-12-01T08:54:00.468Z,80.82
2022-12-01T08:56:40.486Z,77.32
2022-12-01T08:59:08.395Z,82.57
2022-12-01T09:01:51.798Z,73.85
2022-12-01T09:04:23.621Z,71.47
2022-12-01T09:06:53.876Z,76.32
2022-12-01T09:09:28.450Z,79.25
2022-12-01T09:11:57.288Z,81.53
2022-12-01T09:14:24.582Z,82.63
2022-12-01T09:16:52.011Z,75.75
2022-12-01T09:19:24.708Z,68.38
2022-12-01T09:21:52.799Z,75.97
2022-12-01T09:24:20.047Z,75.10
2022-12-01T09:26:47.235Z,68.93
2022-12-01T09:29:16.780Z,67.57
2022-12-01T09:31:44.294Z,75.68
2022-12-01T09:34:17.351Z,71.25
2022-12-01T09:36:46.028Z,75.85
2022-12-01T09:39:18.723Z,68.82
2022-12-01T09:42:13.911Z,73.53
2022-12-01T09:44:50.851Z,72.93
2022-12-01T09:47:37.373Z,69.00
2022-12-01T09:50:21.870Z,74.65
2022-12-01T09:53:03.710Z,66.72
2022-12-01T09:55:34.149Z,65.78
2022-12-01T09:58:04.311Z,69.22
2022-12-01T10:00:37.011Z,65.50
2022-12-01T10:03:46.249Z,60.42
2022-12-01T10:06:28.107Z,59.33
2022-12-01T10:09:58.777Z,53.72
2022-12-01T10:12:34.629Z,55.85
2022-12-01T10:15:45.253Z,54.25
2022-12-01T10:18:56.244Z,54.97
2022-12-01T10:22:23.671Z,56.05
2022-12-01T10:24:56.258Z,61.80
2022-12-01T10:28:11.464Z,55.80
2022-12-01T10:30:53.689Z,53.67
2022-12-01T10:33:41.608Z,54.58
2022-12-01T10:36:10.606Z,51.75
2022-12-01T10:38:39.191Z,50.83
2022-12-01T10:41:14.631Z,49.55
2022-12-01T10:46:29.341Z,51.78
2022-12-01T10:49:09.881Z,48.47
2022-12-01T10:51:58.219Z,53.92
2022-12-01T10:54:41.237Z,53.05
2022-12-01T10:57:17.625Z,49.80
2022-12-01T11:00:00.430Z,49.05
2022-12-01T11:02:30.872Z,50.85
2022-12-01T11:05:18.853Z,57.83
2022-12-01T11:07:47.902Z,48.78
2022-12-01T11:10:32.276Z,48.80
2022-12-01T11:13:23.617Z,46.35
2022-12-01T11:15:57.581Z,48.85
2022-12-01T11:18:36.624Z,51.17
2022-12-01T11:21:28.070Z,48.38
2022-12-01T11:23:56.741Z,49.22
2022-12-01T11:26:29.813Z,48.83
2022-12-01T11:29:33.143Z,44.30
2022-12-01T11:32:02.479Z,43.20
2022-12-01T11:34:34.538Z,45.03
2022-12-01T11:37:09.729Z,39.97
2022-12-01T11:39:40.563Z,41.10
2022-12-01T11:42:13.717Z,45.22
2022-12-01T11:44:54.044Z,43.78
2022-12-01T11:47:25.739Z,48.38
2022-12-01T11:50:07.333Z,49.80
2022-12-01T11:52:46.149Z,46.08
2022-12-01T11:55:13.170Z,50.63
2022-12-01T11:57:44.919Z,42.40
2022-12-01T12:00:25.296Z,44.38
2022-12-01T12:03:26.822Z,43.33
2022-12-01T12:06:39.933Z,43.03
2022-12-01T12:09:59.604Z,39.75
2022-12-01T12:12:45.582Z,45.28
2022-12-01T12:16:14.389Z,43.03
2022-12-01T12:19:06.470Z,46.33
2022-12-01T12:22:21.216Z,45.13
2022-12-01T12:25:34.393Z,44.10
2022-12-01T12:28:23.333Z,49.17
2022-12-01T12:31:44.160Z,50.35
2022-12-01T12:34:41.203Z,53.28
2022-12-01T12:37:45.507Z,50.25
2022-12-01T12:40:54.472Z,45.65
2022-12-01T12:43:47.072Z,48.30
2022-12-01T12:46:46.510Z,52.92
2022-12-01T12:49:57.765Z,55.72
2022-12-01T12:52:46.510Z,63.20
2022-12-01T12:55:32.333Z,59.75
2022-12-01T12:58:14.061Z,53.50
2022-12-01T13:00:52.361Z,50.17
2022-12-01T13:04:07.819Z,52.25
2022-12-01T13:07:14.079Z,51.25
2022-12-01T13:09:51.429Z,49.90
2022-12-01T13:12:39.029Z,54.63
2022-12-01T13:15:20.384Z,47.03
2022-12-01T13:18:04.729Z,48.75
2022-12-01T13:20:34.862Z,51.13
2022-12-01T13:23:03.621Z,44.88
2022-12-01T13:25:40.432Z,45.42
2022-12-01T13:28:29.211Z,46.40
2022-12-01T13:31:11.804Z,49.63
2022-12-01T13:34:02.940Z,47.03
2022-12-01T13:36:48.164Z,49.53
2022-12-01T13:39:36.069Z,51.07
2022-12-01T13:42:25.859Z,48.75
2022-12-01T13:45:02.460Z,51.22
2022-12-01T13:47:51.960Z,55.25
2022-12-01T13:50:42.874Z,51.42
2022-12-01T13:53:32.363Z,51.72
2022-12-01T13:56:17.776Z,47.70
2022-12-01T13:58:52.990Z,44.28
2022-12-01T14:01:20.377Z,48.95
2022-12-01T14:04:16.836Z,46.33
2022-12-01T14:06:50.681Z,43.65
2022-12-01T14:09:49.556Z,42.65
2022-12-01T14:12:28.539Z,48.20
2022-12-01T14:15:20.498Z,49.38
2022-12-01T14:17:48.105Z,51.58
2022-12-01T14:20:21.462Z,54.42
2022-12-01T14:23:33.165Z,52.88
2022-12-01T14:26:13.945Z,52.92
2022-12-01T14:29:02.588Z,59.75
2022-12-01T14:31:32.705Z,57.20
2022-12-01T14:34:19.921Z,61.65
2022-12-01T14:37:06.033Z,55.78
2022-12-01T14:42:57.853Z,57.80
2022-12-01T14:45:49.819Z,52.53
2022-12-01T14:48:28.216Z,48.70
2022-12-01T14:51:35.129Z,55.40
2022-12-01T14:54:17.898Z,48.90
2022-12-01T14:56:52.029Z,50.55
2022-12-01T14:59:25.947Z,48.42
2022-12-01T15:02:08.833Z,57.20
2022-12-01T15:05:14.623Z,55.00
2022-12-01T15:07:51.930Z,51.93
2022-12-01T15:10:29.142Z,53.35
2022-12-01T15:12:56.335Z,55.42
2022-12-01T15:15:26.994Z,52.47
2022-12-01T15:17:55.871Z,56.47
2022-12-01T15:20:37.912Z,53.47
2022-12-01T15:23:17.109Z,54.97
2022-12-01T15:25:46.499Z,54.35
2022-12-01T15:28:19.648Z,56.30
2022-12-01T15:30:53.931Z,56.42
2022-12-01T15:33:37.194Z,57.47
2022-12-01T15:36:07.231Z,58.03
2022-12-01T15:38:37.296Z,56.58
2022-12-01T15:44:00.621Z,64.93
2022-12-01T15:46:34.197Z,66.75
2022-12-01T15:49:16.885Z,66.57
2022-12-01T15:51:45.353Z,63.63
2022-12-01T15:54:26.304Z,66.82
2022-12-01T15:56:58.532Z,70.90
2022-12-01T15:59:41.837Z,79.50
2022-12-01T16:02:32.622Z,74.65
2022-12-01T16:05:18.260Z,73.22
2022-12-01T16:08:12.745Z,68.00
2022-12-01T16:10:36.889Z,71.55
2022-12-01T16:13:48.802Z,71.85
2022-12-01T16:16:49.680Z,68.60
2022-12-01T16:19:16.924Z,73.43
2022-12-01T16:21:54.764Z,65.22
2022-12-01T16:24:30.705Z,73.82
2022-12-01T16:29:46.033Z,74.63
2022-12-01T16:32:21.806Z,84.22
2022-12-01T16:34:52.508Z,94.90
2022-12-01T16:37:22.075Z,91.15
2022-12-01T16:39:49.961Z,98.53
2022-12-01T16:42:21.067Z,93.95
2022-12-01T16:44:50.647Z,96.93
2022-12-01T16:47:25.690Z,102.32
2022-12-01T16:49:53.431Z,97.80
2022-12-01T16:55:57.683Z,95.65
2022-12-01T16:58:25.177Z,87.05
2022-12-01T17:00:52.999Z,73.20
2022-12-01T17:03:25.335Z,77.95
2022-12-01T17:05:53.296Z,80.55
2022-12-01T17:08:21.132Z,81.80
2022-12-01T17:10:51.396Z,92.13
2022-12-01T17:13:23.253Z,84.85
2022-12-01T17:15:54.333Z,85.82
2022-12-01T17:18:24.943Z,96.15
2022-12-01T17:21:08.193Z,92.95
2022-12-01T17:23:37.921Z,103.15
2022-12-01T17:26:16.353Z,88.53
2022-12-01T17:28:43.778Z,94.13
2022-12-01T17:31:12.047Z,85.20
2022-12-01T17:33:40.258Z,72.75
2022-12-01T17:36:12.284Z,78.45
2022-12-01T17:38:45.780Z,84.47
2022-12-01T17:41:21.698Z,69.70
2022-12-01T17:43:49.125Z,74.15
2022-12-01T17:46:17.105Z,67.07
2022-12-01T17:48:47.003Z,77.03
2022-12-01T17:51:15.470Z,89.22
2022-12-01T17:53:42.888Z,81.38
2022-12-01T17:56:15.335Z,82.00
2022-12-01T17:58:45.357Z,85.63
2022-12-01T18:01:19.154Z,92.57
2022-12-01T18:03:50.875Z,88.43
2022-12-01T18:06:19.767Z,96.25
2022-12-01T18:08:47.431Z,92.78
2022-12-01T18:11:16.605Z,79.45
2022-12-01T18:13:48.430Z,84.22
2022-12-01T18:16:21.424Z,83.88
2022-12-01T18:18:49.585Z,87.32
2022-12-01T18:21:20.752Z,100.13
2022-12-01T18:23:59.434Z,102.22
2022-12-01T18:26:28.464Z,107.60
2022-12-01T18:29:03.669Z,85.07
2022-12-01T18:31:32.954Z,86.90
2022-12-01T18:34:03.391Z,90.35
2022-12-01T18:36:34.429Z,85.28
2022-12-01T18:39:04.195Z,88.95
2022-12-01T18:41:32.044Z,83.20
2022-12-01T18:43:59.293Z,88.38
2022-12-01T18:46:26.598Z,82.68
2022-12-01T18:49:03.085Z,81.13
2022-12-01T18:51:36.666Z,76.68
2022-12-01T18:54:07.277Z,75.45
2022-12-01T18:56:35.291Z,77.65
2022-12-01T18:59:09.671Z,77.70
2022-12-01T19:01:43.530Z,73.20
2022-12-01T19:04:11.484Z,71.10
2022-12-01T19:06:41.397Z,73.50
2022-12-01T19:09:13.573Z,74.93
2022-12-01T19:11:43.149Z,75.53
2022-12-01T19:14:18.655Z,76.00
2022-12-01T19:16:47.271Z,70.13
2022-12-01T19:19:15.411Z,74.70
2022-12-01T19:21:42.848Z,70.65
2022-12-01T19:24:10.121Z,73.20
2022-12-01T19:26:37.630Z,74.45
2022-12-01T19:29:05.677Z,69.10
2022-12-01T19:31:33.002Z,70.75
2022-12-01T19:34:03.652Z,65.57
2022-12-01T19:36:31.382Z,69.00
2022-12-01T19:39:00.555Z,73.53
2022-12-01T19:41:29.876Z,74.22
2022-12-01T19:43:58.454Z,74.45
2022-12-01T19:46:27.525Z,78.05
2022-12-01T19:49:00.952Z,78.80
2022-12-01T19:51:36.525Z,77.95
2022-12-01T19:54:07.735Z,85.07
2022-12-01T19:56:34.992Z,80.40
2022-12-01T19:59:02.667Z,81.63
2022-12-01T20:01:29.985Z,78.68
2022-12-01T20:03:57.311Z,79.15
2022-12-01T20:06:31.937Z,74.72
2022-12-01T20:09:03.713Z,79.82
2022-12-01T20:11:32.895Z,75.03
2022-12-01T20:14:00.160Z,71.38
2022-12-01T20:16:30.388Z,75.60
2022-12-01T20:19:02.335Z,79.88
2022-12-01T20:21:39.137Z,78.00
2022-12-01T20:24:10.849Z,83.68
2022-12-01T20:26:46.843Z,77.97
2022-12-01T20:29:23.410Z,75.35
2022-12-01T20:31:53.312Z,86.68
2022-12-01T20:34:27.673Z,92.30
2022-12-01T20:36:56.435Z,98.18
2022-12-01T20:39:24.790Z,94.10
2022-12-01T20:41:52.137Z,84.15
2022-12-01T20:44:19.852Z,87.32
2022-12-01T20:46:47.729Z,90.22
2022-12-01T20:49:18.073Z,84.88
2022-12-01T20:51:47.202Z,88.43
2022-12-01T20:54:27.896Z,88.95
2022-12-01T20:56:55.338Z,86.25
2022-12-01T20:59:22.570Z,83.25
2022-12-01T21:01:49.806Z,87.95
2022-12-01T21:04:17.637Z,80.13
2022-12-01T21:06:45.285Z,84.20
2022-12-01T21:09:14.589Z,83.65
2022-12-01T21:12:09.393Z,83.18
2022-12-01T21:14:45.597Z,86.70
2022-12-01T21:17:46.588Z,90.47
2022-12-01T21:20:53.484Z,87.80
2022-12-01T21:23:21.361Z,85.47
2022-12-01T21:25:49.373Z,83.60
2022-12-01T21:28:19.504Z,92.20
2022-12-01T21:31:11.136Z,88.05
2022-12-01T21:33:41.483Z,83.80
2022-12-01T21:36:20.776Z,85.72
2022-12-01T21:38:55.057Z,108.15
2022-12-01T21:41:28.639Z,86.25
2022-12-01T21:44:22.136Z,91.95
2022-12-01T21:46:56.777Z,97.43
2022-12-01T21:49:39.209Z,89.13
2022-12-01T21:52:40.151Z,91.18
2022-12-01T21:55:16.329Z,83.70
2022-12-01T21:57:50.366Z,80.40
2022-12-01T22:00:36.504Z,81.65
2022-12-01T22:06:31.465Z,71.95
2022-12-01T22:09:12.539Z,76.75
2022-12-01T22:11:45.202Z,80.10
2022-12-01T22:14:27.949Z,84.10
2022-12-01T22:17:06.491Z,88.47
2022-12-01T22:19:44.989Z,81.07
2022-12-01T22:22:11.964Z,82.35
2022-12-01T22:24:47.750Z,77.60
2022-12-01T22:27:38.724Z,83.78
2022-12-01T22:30:05.810Z,79.70
2022-12-01T22:33:03.600Z,78.55
2022-12-01T22:35:42.649Z,82.30
2022-12-01T22:38:36.949Z,78.72
2022-12-01T22:41:15.055Z,82.65
2022-12-01T22:44:02.175Z,84.55
2022-12-01T22:46:39.825Z,89.03
2022-12-01T22:49:22.105Z,93.53
2022-12-01T22:52:01.277Z,87.25
2022-12-01T22:54:43.205Z,86.68
2022-12-01T22:57:31.460Z,90.82
2022-12-01T23:00:23.064Z,91.75
2022-12-01T23:02:54.907Z,92.38
2022-12-01T23:05:27.755Z,95.90
2022-12-01T23:07:56.074Z,92.60
2022-12-01T23:10:34.696Z,91.25
2022-12-01T23:13:24.219Z,94.47
2022-12-01T23:15:55.948Z,93.18
2022-12-01T23:18:34.076Z,97.50
2022-12-01T23:21:02.381Z,90.30
2022-12-01T23:23:36.362Z,96.38
2022-12-01T23:26:08.066Z,87.68
2022-12-01T23:28:38.886Z,92.22
2022-12-01T23:31:09.249Z,91.00
2022-12-01T23:33:36.751Z,88.65
2022-12-01T23:36:16.805Z,89.25
2022-12-01T23:38:50.523Z,90.22
2022-12-01T23:41:36.864Z,86.65
2022-12-01T23:44:39.939Z,82.40
2022-12-01T23:47:24.799Z,87.15
2022-12-01T23:50:09.621Z,84.85
2022-12-01T23:52:37.350Z,90.82
2022-12-01T23:55:31.449Z,88.50
2022-12-01T23:57:59.195Z,91.35
